Weather observations for the past three days for
Weaverville
Imperial (Metric)
Date Time (pdt) Wind (mph) Vis. (mi.) Weather Sky Cond. Temperature (ºF) Relative Humidity Wind Chill (°F) Heat Index (°F) Pressure Precipitation (in)
Air Dwpt 6 hour altimeter (in) sea level (mb) 1 hr 3 hr 6 hr
Max. Min.
04 15:35 SW 9 G 18 10.00 A Few Clouds FEW043 68 51.8 56% 29.87 0.0
04 15:15 W 9 G 18 10.00 A Few Clouds FEW044 68 51.8 56% 29.87 0.0
04 14:55 W 8 G 17 10.00 A Few Clouds FEW042 68 50 53% 29.89 0.0
04 14:35 W 9 G 16 10.00 Mostly Cloudy FEW033 BKN046 66.2 51.8 60% 29.89 0.0
04 14:15 Vrbl 6 G 14 10.00 Mostly Cloudy FEW032 BKN046 68 51.8 56% 29.9 0.0
04 13:55 SW 12 10.00 Partly Cloudy FEW030 SCT046 66.2 51.8 60% 29.91 0.0
04 13:35 SW 12 G 18 10.00 Partly Cloudy SCT046 66.2 51.8 60% 29.91 0.0
04 13:15 S 10 10.00 Fair CLR 66.2 51.8 60% 29.92 0.0
04 12:55 SW 8 10.00 Fair CLR 62.6 51.8 68% 29.93 0.0
04 12:35 S 12 G 17 10.00 A Few Clouds FEW025 64.4 51.8 64% 29.92 0.0
04 12:15 S 13 G 20 10.00 Fair CLR 62.6 51.8 68% 29.93 0.0
04 11:55 Vrbl 7 G 15 10.00 Mostly Cloudy SCT018 BKN029 62.6 51.8 68% 29.93 0.0
04 11:35 S 6 10.00 Overcast BKN016 OVC027 60.8 53.6 77% 29.94 0.0
04 11:15 SW 6 10.00 Overcast BKN016 BKN021 OVC028 59 53.6 82% 29.94 0.0
04 10:55 Vrbl 5 10.00 Overcast BKN016 OVC020 59 53.6 82% 29.94 0.0
04 10:35 S 3 10.00 Overcast BKN015 BKN020 OVC046 59 53.6 82% 29.94 0.0
04 10:15 Calm 10.00 Overcast SCT041 OVC046 57.2 51.8 82% 29.94 0.0
04 09:55 Calm 10.00 Overcast FEW013 FEW017 OVC037 57.2 51.8 82% 29.95 0.0
04 09:35 Calm 10.00 Overcast FEW008 SCT013 OVC034 57.2 51.8 82% 29.95 0.0
04 09:15 Calm 10.00 Overcast FEW017 BKN026 OVC034 57.2 53.6 88% 29.95 0.0
04 08:55 Calm 9.00 Overcast SCT006 SCT020 OVC025 55.4 53.6 94% 29.95 0.0
04 08:35 Calm 4.00 Fog/Mist SCT005 BKN014 OVC021 55.4 53.6 94% 29.94 0.0
04 08:15 Calm 7.00 Overcast BKN013 BKN018 OVC022 55.4 53.6 94% 29.94 0.0
04 07:55 Calm 6.00 Fog/Mist FEW006 BKN010 OVC014 55.4 53.6 94% 29.94 0.0
04 07:35 Calm 7.00 Overcast BKN007 OVC010 55.4 53.6 94% 29.93 0.0
04 07:15 Calm 5.00 Fog/Mist BKN006 OVC018 55.4 53.6 94% 29.93 0.0
04 06:55 Calm 9.00 Mostly Cloudy FEW015 SCT019 BKN029 55.4 53.6 94% 29.92 0.0
04 06:35 Calm 10.00 Overcast SCT008 BKN016 OVC029 55.4 53.6 94% 29.92 0.0
04 06:15 Calm 9.00 Overcast SCT005 BKN009 OVC016 55.4 53.6 94% 29.92 0.0
04 05:55 Calm 8.00 Overcast BKN004 BKN009 OVC031 55.4 53.6 94% 29.91 0.0
04 05:35 Calm 9.00 Overcast FEW010 BKN028 OVC032 55.4 53.6 94% 29.91 0.0
04 05:15 Calm 8.00 Overcast OVC026 55.4 53.6 94% 29.91 0.0
04 04:55 Calm 7.00 Overcast OVC025 55.4 53.6 94% 29.91 0.0
04 04:35 Calm 10.00 Overcast OVC025 55.4 53.6 94% 29.91 0.0
04 04:15 Calm 10.00 Overcast BKN017 OVC023 55.4 53.6 94% 29.91 0.0
04 03:55 Calm 8.00 Overcast FEW004 SCT007 OVC014 55.4 55.4 100% 29.91 0.0
04 03:35 Calm 8.00 Overcast BKN005 BKN010 OVC015 55.4 55.4 100% 29.91 0.0
04 03:15 Calm 9.00 Overcast OVC013 55.4 55.4 100% 29.92 0.0
04 02:55 Calm 9.00 Overcast OVC012 55.4 55.4 100% 29.92 0.0
04 02:35 Calm 9.00 Overcast FEW006 OVC012 55.4 55.4 100% 29.92 0.0
04 02:15 Calm 9.00 Overcast FEW004 BKN013 OVC021 55.4 55.4 100% 29.92 0.0
04 01:55 Calm 7.00 Overcast FEW015 OVC022 55.4 53.6 94% 29.92 0.0
04 01:35 Calm 7.00 Overcast OVC020 55.4 53.6 94% 29.92 0.0
04 01:15 Calm 9.00 Overcast SCT011 OVC020 55.4 55.4 100% 29.92 0.0
04 00:55 Calm 8.00 Overcast FEW005 BKN012 OVC019 55.4 55.4 100% 29.92 0.0 0.01
04 00:35 Calm 5.00 Fog/Mist SCT004 BKN019 OVC120 55.4 55.4 100% 29.91 0.0
04 00:15 Calm 9.00 Overcast FEW005 BKN024 OVC110 55.4 55.4 100% 29.91 0.0
03 23:55 Calm 5.00 Fog/Mist BKN022 BKN090 OVC110 55.4 55.4 100% 29.92 0.0
03 23:35 Calm 9.00 Overcast OVC020 55.4 55.4 100% 29.92 0.0
03 23:15 N 3 9.00 Overcast BKN022 BKN050 OVC085 55.4 55.4 100% 29.92 0.0
03 22:55 Calm 6.00 Fog/Mist FEW023 SCT046 BKN075 57.2 55.4 94% 29.92 0.0 0.02
03 22:35 Calm 9.00 Overcast OVC070 57.2 55.4 94% 29.93 0.0
03 22:15 SE 5 6.00 Fog/Mist FEW031 SCT042 OVC075 57.2 55.4 94% 29.91 0.0
03 21:55 N 10 G 21 2.50 Fog/Mist SCT028 BKN034 OVC070 57.2 53.6 88% 29.91 0.0
03 21:35 NE 3 3.00 Fog/Mist FEW028 BKN060 OVC070 57.2 57.2 100% 29.93 0.0
03 21:15 Calm 6.00 Fog/Mist SCT042 BKN050 OVC075 59 55.4 88% 29.92 0.0
03 20:55 Calm 9.00 Overcast BKN043 OVC049 60.8 53.6 77% 29.92 0.0
03 20:35 Calm 10.00 Overcast BKN042 OVC050 62.6 51.8 68% 29.91 0.0
03 20:15 Calm 10.00 Overcast FEW040 OVC050 62.6 51.8 68% 29.9 0.0
03 19:55 NE 7 10.00 Overcast OVC050 62.6 51.8 68% 29.88 0.0
03 19:35 Calm 10.00 Overcast BKN029 BKN043 OVC050 62.6 51.8 68% 29.88 0.0
03 19:15 Calm 10.00 Overcast BKN029 OVC037 62.6 51.8 68% 29.88 0.0
03 18:55 Vrbl 5 10.00 Mostly Cloudy BKN036 BKN110 64.4 51.8 64% 29.87 0.0
03 18:35 Calm 10.00 A Few Clouds FEW110 66.2 53.6 64% 29.85 0.0
03 18:15 Vrbl 5 G 12 10.00 A Few Clouds FEW110 69.8 51.8 53% 29.83 0.0
03 17:55 SE 7 10.00 Fair CLR 75.2 46.4 36% 77 29.81 0.0
03 17:35 Calm 10.00 Fair CLR 77 42.8 30% 78 29.8 0.0
03 17:15 SW 5 10.00 Fair CLR 75.2 44.6 34% 77 29.8 0.0
03 16:55 Vrbl 3 10.00 Fair CLR 75.2 44.6 34% 77 29.8 0.0
03 16:35 SW 6 10.00 Fair CLR 75.2 46.4 36% 77 29.8 0.0
03 16:15 Calm 10.00 Fair CLR 75.2 44.6 34% 77 29.8 0.0
03 15:55 Calm 10.00 Fair CLR 75.2 48.2 39% 77 29.81 0.0
03 15:35 Calm 10.00 Fair CLR 75.2 48.2 39% 77 29.82 0.0
03 15:15 Calm 10.00 Fair CLR 77 46.4 34% 78 29.83 0.0
03 14:55 Vrbl 5 10.00 A Few Clouds FEW110 75.2 46.4 36% 77 29.84 0.0
03 14:35 Calm 10.00 Partly Cloudy SCT110 77 46.4 34% 78 29.84 0.0
03 14:15 Vrbl 5 10.00 Partly Cloudy SCT110 77 44.6 32% 78 29.84 0.0
03 13:55 SE 5 10.00 Fair CLR 77 44.6 32% 78 29.84 0.0
03 13:35 Calm 10.00 Fair CLR 77 44.6 32% 78 29.84 0.0
03 13:15 S 3 10.00 A Few Clouds FEW120 73.4 50 44% 29.85 0.0
03 12:55 SW 3 10.00 A Few Clouds FEW120 71.6 50 47% 29.85 0.0
03 12:35 Calm 10.00 Fair CLR 69.8 50 50% 29.85 0.0
03 12:15 Calm 10.00 Fair CLR 68 48.2 49% 29.86 0.0
03 11:55 Calm 10.00 Fair CLR 66.2 48.2 52% 29.86 0.0
03 11:35 Calm 10.00 Fair CLR 64.4 48.2 56% 29.87 0.0
03 11:15 Calm 10.00 Fair CLR 62.6 46.4 56% 29.87 0.0
03 10:55 Calm 10.00 Fair CLR 62.6 46.4 56% 29.87 0.0
03 10:35 Calm 10.00 Fair CLR 60.8 46.4 59% 29.88 0.0
03 10:15 Calm 10.00 Fair CLR 60.8 46.4 59% 29.88 0.0
03 09:55 Calm 10.00 Fair CLR 59 46.4 63% 29.88 0.0
03 09:35 Calm 10.00 Fair CLR 57.2 46.4 67% 29.88 0.0
03 09:15 Calm 10.00 Fair CLR 55.4 46.4 72% 29.87 0.0
03 08:55 Calm 10.00 Fair CLR 55.4 46.4 72% 29.88 0.0
03 08:35 Calm 10.00 A Few Clouds FEW100 53.6 46.4 77% 29.88 0.0
03 08:15 Calm 10.00 A Few Clouds FEW100 53.6 46.4 77% 29.88 0.0
03 07:55 Calm 10.00 A Few Clouds FEW110 51.8 46.4 82% 29.87 0.0
03 07:35 Calm 10.00 Fair CLR 50 46.4 88% 29.87 0.0
03 07:15 Calm 10.00 A Few Clouds FEW120 50 46.4 88% 29.86 0.0
03 06:55 Calm 10.00 A Few Clouds FEW120 48.2 44.6 87% 29.86 0.0
03 06:35 Calm 10.00 Fair CLR 48.2 44.6 87% 29.86 0.0
03 06:15 Calm 10.00 Fair CLR 48.2 44.6 87% 29.86 0.0
03 05:55 Calm 10.00 Fair CLR 48.2 44.6 87% 29.85 0.0
03 05:35 Calm 10.00 Fair CLR 48.2 44.6 87% 29.86 0.0
03 05:15 Calm 10.00 Fair CLR 48.2 44.6 87% 29.86 0.0
03 04:55 Calm 10.00 Fair CLR 48.2 44.6 87% 29.86 0.0
03 04:35 Calm 10.00 Fair CLR 50 44.6 82% 29.86 0.0
03 04:15 Calm 10.00 Fair CLR 50 44.6 82% 29.86 0.0
03 03:55 Calm 10.00 Fair CLR 51.8 44.6 77% 29.86 0.0
03 03:35 Calm 10.00 Fair CLR 51.8 44.6 77% 29.87 0.0
03 03:15 Calm 10.00 Fair CLR 53.6 44.6 72% 29.87 0.0
03 02:55 Calm 10.00 Fair CLR 53.6 44.6 72% 29.87 0.0
03 02:35 Calm 10.00 Fair CLR 55.4 44.6 67% 29.87 0.0
03 02:15 Calm 10.00 Fair CLR 55.4 44.6 67% 29.88 0.0
03 01:55 Calm 10.00 Fair CLR 55.4 44.6 67% 29.88 0.0
03 01:35 Calm 10.00 Fair CLR 53.6 44.6 72% 29.89 0.0
03 01:15 N 6 10.00 Fair CLR 55.4 44.6 67% 29.9 0.0
03 00:55 NE 5 10.00 Fair CLR 55.4 44.6 67% 29.9 0.0
03 00:35 NE 3 10.00 Fair CLR 55.4 44.6 67% 29.9 0.0
03 00:15 NE 3 10.00 Fair CLR 55.4 46.4 72% 29.9 0.0
02 23:55 Calm 10.00 Fair CLR 55.4 46.4 72% 29.9 0.0
02 23:35 Calm 10.00 Fair CLR 55.4 46.4 72% 29.9 0.0
02 23:15 NE 5 10.00 Fair CLR 57.2 46.4 67% 29.9 0.0
02 22:55 NE 5 10.00 Fair CLR 57.2 44.6 63% 29.9 0.0
02 22:35 N 5 10.00 Fair CLR 59 44.6 59% 29.9 0.0
02 22:15 NE 5 10.00 Fair CLR 59 42.8 55% 29.89 0.0
02 21:55 Calm 10.00 Fair CLR 59 42.8 55% 29.89 0.0
02 21:35 Calm 10.00 Fair CLR 60.8 44.6 55% 29.88 0.0
02 21:15 NE 3 10.00 Fair CLR 60.8 44.6 55% 29.88 0.0
02 20:55 Calm 10.00 Fair CLR 60.8 44.6 55% 29.87 0.0
02 20:35 Calm 10.00 Fair CLR 62.6 44.6 52% 29.86 0.0
02 20:15 Calm 10.00 Fair CLR 66.2 42.8 43% 29.85 0.0
02 19:55 Calm 10.00 Fair CLR 68 41 38% 29.84 0.0
02 19:35 Calm 10.00 Fair CLR 71.6 41 33% 29.84 0.0
02 19:15 NE 6 10.00 Fair CLR 71.6 41 33% 29.83 0.0
02 18:55 NE 5 10.00 Fair CLR 71.6 42.8 36% 29.84 0.0
02 18:35 Calm 10.00 Fair CLR 71.6 42.8 36% 29.84 0.0
02 18:15 Calm 10.00 Fair CLR 75.2 42.8 31% 77 29.84 0.0
02 17:55 Vrbl 3 G 12 10.00 Fair CLR 75.2 44.6 34% 77 29.84 0.0
02 17:35 Calm 10.00 Fair CLR 73.4 42.8 33% 29.84 0.0
02 17:15 Calm 10.00 Fair CLR 73.4 44.6 36% 29.84 0.0
02 16:55 Vrbl 3 G 12 10.00 Fair CLR 75.2 44.6 34% 77 29.84 0.0
02 16:35 Vrbl 5 10.00 Fair CLR 77 44.6 32% 78 29.84 0.0
02 16:15 Vrbl 6 G 14 10.00 A Few Clouds FEW080 77 44.6 32% 78 29.84 0.0
02 15:55 Vrbl 3 G 12 10.00 Fair CLR 77 44.6 32% 78 29.84 0.0
02 15:35 Vrbl 6 G 13 10.00 Fair CLR 77 44.6 32% 78 29.85 0.0
02 15:15 Vrbl 3 G 12 10.00 Fair CLR 77 46.4 34% 78 29.86 0.0
02 14:55 Vrbl 3 10.00 Fair CLR 77 46.4 34% 78 29.87 0.0
02 14:35 Vrbl 3 10.00 Fair CLR 75.2 44.6 34% 77 29.87 0.0
02 14:15 Vrbl 6 10.00 Fair CLR 77 44.6 32% 78 29.87 0.0
02 13:55 Vrbl 3 10.00 Fair CLR 75.2 44.6 34% 77 29.88 0.0
02 13:35 Vrbl 3 G 14 10.00 Fair CLR 75.2 44.6 34% 77 29.88 0.0
02 13:15 Vrbl 5 G 14 10.00 Fair CLR 77 46.4 34% 78 29.88 0.0
02 12:55 Vrbl 5 10.00 Fair CLR 77 44.6 32% 78 29.89 0.0
02 12:35 Calm 10.00 Fair CLR 73.4 46.4 38% 29.89 0.0
02 12:15 Calm 10.00 Fair CLR 73.4 48.2 41% 29.9 0.0
02 11:55 Vrbl 5 10.00 Fair CLR 75.2 48.2 39% 77 29.9 0.0
02 11:35 Vrbl 5 G 12 10.00 A Few Clouds FEW048 71.6 50 47% 29.9 0.0
02 11:15 Calm 10.00 Fair CLR 71.6 51.8 50% 29.91 0.0
02 10:55 Calm 10.00 Fair CLR 69.8 51.8 53% 29.91 0.0
02 10:35 Vrbl 3 10.00 Fair CLR 68 51.8 56% 29.91 0.0
02 10:15 Calm 10.00 Fair CLR 62.6 50 64% 29.91 0.0
02 09:55 Calm 10.00 Fair CLR 62.6 50 64% 29.92 0.0
02 09:35 Vrbl 3 10.00 Fair CLR 59 48.2 68% 29.92 0.0
02 09:15 Calm 10.00 Fair CLR 57.2 46.4 67% 29.92 0.0
02 08:55 Calm 10.00 Fair CLR 55.4 46.4 72% 29.92 0.0
02 08:35 Calm 10.00 Fair CLR 53.6 48.2 82% 29.92 0.0
02 08:15 Calm 10.00 Fair CLR 53.6 48.2 82% 29.91 0.0
02 07:55 Calm 10.00 Fair CLR 53.6 46.4 77% 29.91 0.0
02 07:35 Calm 10.00 Fair CLR 51.8 46.4 82% 29.92 0.0
02 07:15 Calm 10.00 Fair CLR 51.8 46.4 82% 29.92 0.0
02 06:55 Calm 10.00 Fair CLR 50 46.4 88% 29.91 0.0
02 06:35 Calm 10.00 A Few Clouds FEW065 50 46.4 88% 29.91 0.0
02 06:15 Calm 10.00 Mostly Cloudy BKN065 50 46.4 88% 29.91 0.0
02 05:55 Calm 10.00 Overcast FEW050 OVC065 51.8 46.4 82% 29.91 0.0
02 05:35 Calm 10.00 Overcast FEW040 OVC065 50 46.4 88% 29.9 0.0
02 05:15 Calm 10.00 Mostly Cloudy FEW041 SCT050 BKN065 50 46.4 88% 29.9 0.0
02 04:55 Calm 10.00 Mostly Cloudy FEW045 BKN050 BKN065 50 46.4 88% 29.9 0.0
02 04:35 Calm 10.00 Partly Cloudy SCT046 SCT050 50 44.6 82% 29.91 0.0
02 04:15 Calm 10.00 Mostly Cloudy BKN050 50 44.6 82% 29.91 0.0
02 03:55 Calm 10.00 Partly Cloudy FEW042 SCT050 50 44.6 82% 29.91 0.0
02 03:35 Calm 10.00 A Few Clouds FEW041 50 44.6 82% 29.91 0.0
02 03:15 Calm 10.00 A Few Clouds FEW040 FEW050 50 46.4 88% 29.91 0.0
02 02:55 Calm 10.00 Fair CLR 51.8 46.4 82% 29.92 0.0
02 02:35 Calm 10.00 Fair CLR 50 44.6 82% 29.92 0.0
02 02:15 Calm 10.00 Fair CLR 51.8 44.6 77% 29.92 0.0
02 01:55 Calm 10.00 Fair CLR 51.8 46.4 82% 29.92 0.0
02 01:35 Calm 10.00 Fair CLR 51.8 44.6 77% 29.93 0.0
02 01:15 Calm 10.00 Fair CLR 51.8 44.6 77% 29.93 0.0
02 00:55 Calm 10.00 Fair CLR 53.6 44.6 72% 29.93 0.0
02 00:35 Calm 10.00 Fair CLR 53.6 46.4 77% 29.94 0.0
02 00:15 Calm 10.00 Fair CLR 53.6 46.4 77% 29.93 0.0
01 23:55 NE 3 10.00 A Few Clouds FEW070 55.4 46.4 72% 29.94 0.0
01 23:35 Calm 10.00 Partly Cloudy SCT070 53.6 46.4 77% 29.93 0.0
01 23:15 Calm 10.00 Fair CLR 55.4 48.2 77% 29.93 0.0
01 22:55 Calm 10.00 Fair CLR 57.2 48.2 72% 29.93 0.0
01 22:35 Calm 10.00 Fair CLR 57.2 48.2 72% 29.93 0.0
01 22:15 Calm 10.00 A Few Clouds FEW080 57.2 48.2 72% 29.92 0.0
01 21:55 NE 3 10.00 Partly Cloudy SCT080 57.2 48.2 72% 29.92 0.0
01 21:35 Calm 10.00 Fair CLR 59 48.2 68% 29.91 0.0
01 21:15 Calm 10.00 Fair CLR 60.8 48.2 63% 29.91 0.0
01 20:55 Calm 10.00 Fair CLR 62.6 50 64% 29.9 0.0
01 20:35 Calm 10.00 A Few Clouds FEW070 FEW080 FEW110 62.6 50 64% 29.89 0.0
01 20:15 Calm 10.00 A Few Clouds FEW110 64.4 50 60% 29.89 0.0
01 19:55 Calm 10.00 Fair CLR 68 51.8 56% 29.88 0.0
01 19:35 Calm 10.00 Fair CLR 69.8 51.8 53% 29.88 0.0
01 19:15 Calm 10.00 Fair CLR 73.4 48.2 41% 29.88 0.0
01 18:55 Calm 10.00 Fair CLR 77 42.8 30% 78 29.88 0.0
01 18:35 Calm 10.00 Fair CLR 78.8 42.8 28% 78 29.88 0.0
01 18:15 Calm 10.00 Fair CLR 78.8 44.6 30% 79 29.88 0.0
01 17:55 Calm 10.00 Fair CLR 78.8 44.6 30% 79 29.88 0.0
01 17:35 Vrbl 3 10.00 Fair CLR 78.8 44.6 30% 79 29.89 0.0
01 17:15 Calm 10.00 A Few Clouds FEW095 78.8 44.6 30% 79 29.89 0.0
01 16:55 Vrbl 3 10.00 A Few Clouds FEW095 78.8 42.8 28% 78 29.89 0.0
01 16:35 Calm 10.00 Fair CLR 78.8 42.8 28% 78 29.9 0.0
01 16:15 Calm 10.00 Fair CLR 80.6 42.8 26% 79 29.91 0.0
01 15:55 S 5 10.00 Fair CLR 78.8 44.6 30% 79 29.92 0.0
Date Time (pdt) Wind (mph) Vis. (mi.) Weather Sky Cond. Air Dwpt Max. Min. Relative Humidity Wind Chill (°F) Heat Index (°F) altimeter (in) sea level (mb) 1 hr 3 hr 6 hr
6 hour
Temperature (ºF) Pressure Precipitation (in)